createdAt,value
2019-04-23T00:00:03.411Z,47.90
2019-04-23T00:02:20.595Z,48.40
2019-04-23T00:04:48.216Z,48.20
2019-04-23T00:09:56.891Z,47.80
2019-04-23T00:12:31.368Z,48.30
2019-04-23T00:17:30.440Z,47.70
2019-04-23T00:19:55.751Z,48.10
2019-04-23T00:22:29.682Z,48.40
2019-04-23T00:25:25.585Z,48.70
2019-04-23T00:27:40.527Z,48.80
2019-04-23T00:32:35.000Z,49.00
2019-04-23T00:35:10.279Z,49.40
2019-04-23T00:37:37.304Z,50.00
2019-04-23T00:40:02.979Z,49.60
2019-04-23T00:42:41.680Z,50.20
2019-04-23T00:45:13.670Z,50.50
2019-04-23T00:47:38.765Z,50.60
2019-04-23T00:50:12.336Z,50.90
2019-04-23T00:52:40.514Z,50.50
2019-04-23T00:55:19.098Z,51.10
2019-04-23T00:58:02.807Z,51.60
2019-04-23T01:00:19.033Z,51.80
2019-04-23T01:02:48.849Z,51.80
2019-04-23T01:07:46.124Z,52.80
2019-04-23T01:10:25.659Z,53.00
2019-04-23T01:15:21.312Z,53.60
2019-04-23T01:17:53.404Z,53.70
2019-04-23T01:20:22.101Z,53.80
2019-04-23T01:22:40.093Z,53.80
2019-04-23T01:25:35.095Z,54.30
2019-04-23T01:28:30.685Z,54.60
2019-04-23T01:33:35.402Z,55.70
2019-04-23T01:36:09.414Z,55.90
2019-04-23T01:38:32.541Z,56.30
2019-04-23T01:40:53.736Z,56.50
2019-04-23T01:43:30.178Z,56.60
2019-04-23T01:45:54.627Z,56.50
2019-04-23T01:48:29.534Z,56.90
2019-04-23T01:56:02.830Z,57.40
2019-04-23T01:58:38.798Z,57.60
2019-04-23T02:00:58.002Z,57.90
2019-04-23T02:03:46.639Z,58.00
2019-04-23T02:06:03.091Z,58.20
2019-04-23T02:08:26.181Z,58.50
2019-04-23T02:15:59.858Z,59.30
2019-04-23T02:18:32.206Z,59.20
2019-04-23T02:21:07.604Z,59.10
2019-04-23T02:23:51.661Z,59.40
2019-04-23T02:26:20.167Z,59.90
2019-04-23T02:28:54.541Z,60.10
2019-04-23T02:34:40.993Z,60.50
2019-04-23T02:36:57.131Z,60.80
2019-04-23T02:39:13.108Z,60.90
2019-04-23T02:41:55.984Z,61.10
2019-04-23T02:46:59.795Z,61.60
2019-04-23T02:51:54.621Z,61.80
2019-04-23T02:54:46.495Z,61.90
2019-04-23T02:56:51.469Z,62.20
2019-04-23T02:59:32.765Z,62.40
2019-04-23T03:04:35.691Z,62.80
2019-04-23T03:07:03.292Z,63.10
2019-04-23T03:12:14.733Z,63.40
2019-04-23T03:17:02.678Z,63.40
2019-04-23T03:19:37.789Z,64.00
2019-04-23T03:22:09.703Z,64.10
2019-04-23T03:25:05.232Z,64.30
2019-04-23T03:27:27.514Z,64.10
2019-04-23T03:29:55.313Z,64.20
2019-04-23T03:40:00.170Z,65.10
2019-04-23T03:44:57.659Z,65.40
2019-04-23T03:47:26.806Z,65.80
2019-04-23T03:49:57.586Z,65.70
2019-04-23T03:52:31.361Z,65.80
2019-04-23T04:00:12.545Z,65.80
2019-04-23T04:04:51.694Z,66.20
2019-04-23T04:07:40.257Z,66.30
2019-04-23T04:09:51.770Z,66.30
2019-04-23T04:15:18.880Z,66.70
2019-04-23T04:17:44.666Z,66.50
2019-04-23T04:19:56.366Z,67.10
2019-04-23T04:25:00.950Z,66.40
2019-04-23T04:27:36.449Z,66.50
2019-04-23T04:30:00.894Z,66.30
2019-04-23T04:32:48.817Z,66.00
2019-04-23T04:40:05.144Z,66.30
2019-04-23T04:42:25.356Z,66.30
2019-04-23T04:47:36.802Z,65.90
2019-04-23T04:49:59.529Z,66.00
2019-04-23T04:55:05.206Z,65.90
2019-04-23T04:57:50.157Z,65.60
2019-04-23T05:05:32.337Z,64.60
2019-04-23T05:18:03.245Z,64.00
2019-04-23T05:25:15.452Z,62.90
2019-04-23T05:27:56.523Z,62.50
2019-04-23T05:32:48.873Z,61.90
2019-04-23T05:35:20.319Z,62.00
2019-04-23T05:37:59.299Z,60.90
2019-04-23T05:42:49.742Z,60.90
2019-04-23T05:45:16.918Z,60.90
2019-04-23T05:47:50.861Z,60.40
2019-04-23T05:50:27.146Z,60.20
2019-04-23T05:52:58.085Z,59.80
2019-04-23T05:55:34.371Z,59.60
2019-04-23T05:57:42.697Z,59.40
2019-04-23T06:00:28.770Z,58.90
2019-04-23T06:02:58.927Z,58.40
2019-04-23T06:05:41.510Z,57.80
2019-04-23T06:10:25.984Z,57.50
2019-04-23T06:12:52.220Z,57.10
2019-04-23T06:15:20.766Z,57.10
2019-04-23T06:17:55.891Z,57.00
2019-04-23T06:20:27.586Z,56.50
2019-04-23T06:22:56.090Z,56.50
2019-04-23T06:25:47.821Z,55.60
2019-04-23T06:27:54.401Z,55.10
2019-04-23T06:30:26.634Z,54.60
2019-04-23T06:33:14.470Z,54.10
2019-04-23T06:35:27.142Z,52.70
2019-04-23T06:40:29.855Z,52.50
2019-04-23T06:42:57.958Z,52.50
2019-04-23T06:45:33.938Z,51.90
2019-04-23T06:48:09.195Z,51.20
2019-04-23T06:50:36.662Z,51.60
2019-04-23T06:52:59.422Z,51.30
2019-04-23T06:55:40.661Z,50.70
2019-04-23T06:58:17.032Z,50.00
2019-04-23T07:00:41.263Z,49.50
2019-04-23T07:03:18.189Z,49.20
2019-04-23T07:06:13.807Z,49.00
2019-04-23T07:08:55.130Z,49.20
2019-04-23T07:11:08.306Z,48.20
2019-04-23T07:13:40.222Z,47.90
2019-04-23T07:16:08.036Z,48.00
2019-04-23T07:18:34.489Z,48.60
2019-04-23T07:21:07.950Z,47.70
2019-04-23T07:26:24.331Z,47.70
2019-04-23T07:28:48.560Z,47.10
2019-04-23T07:31:14.158Z,45.90
2019-04-23T07:33:44.225Z,46.00
2019-04-23T07:36:15.979Z,46.30
2019-04-23T07:39:01.200Z,46.20
2019-04-23T07:41:23.405Z,45.80
2019-04-23T07:43:54.467Z,43.80
2019-04-23T07:46:33.841Z,43.40
2019-04-23T07:48:56.456Z,42.40
2019-04-23T07:51:27.801Z,43.50
2019-04-23T07:54:16.151Z,43.50
2019-04-23T07:56:33.748Z,43.40
2019-04-23T07:59:07.274Z,42.80
2019-04-23T08:01:32.071Z,42.20
2019-04-23T08:04:01.778Z,43.40
2019-04-23T08:06:30.108Z,42.70
2019-04-23T08:09:00.856Z,43.30
2019-04-23T08:18:57.389Z,41.00
2019-04-23T08:21:32.056Z,41.30
2019-04-23T08:24:21.728Z,40.50
2019-04-23T08:27:07.618Z,40.80
2019-04-23T08:29:28.092Z,41.50
2019-04-23T08:32:12.229Z,41.10
2019-04-23T08:37:10.094Z,42.00
2019-04-23T08:42:28.731Z,42.60
2019-04-23T08:44:44.675Z,41.60
2019-04-23T08:54:54.816Z,40.80
2019-04-23T08:57:18.354Z,40.90
2019-04-23T09:02:31.058Z,40.90
2019-04-23T09:07:24.130Z,40.70
2019-04-23T09:09:53.927Z,40.10
2019-04-23T09:12:23.616Z,40.20
2019-04-23T09:14:52.397Z,39.50
2019-04-23T09:17:17.193Z,38.50
2019-04-23T09:20:07.004Z,39.10
2019-04-23T09:22:34.579Z,37.10
2019-04-23T09:27:33.241Z,37.80
2019-04-23T09:30:00.923Z,37.60
2019-04-23T09:35:23.663Z,36.80
2019-04-23T09:38:04.042Z,36.70
2019-04-23T09:41:04.582Z,36.80
2019-04-23T09:43:41.735Z,35.60
2019-04-23T09:46:11.979Z,34.90
2019-04-23T09:48:45.615Z,34.80
2019-04-23T09:51:15.713Z,33.10
2019-04-23T09:53:37.352Z,33.20
2019-04-23T09:56:05.038Z,34.00
2019-04-23T09:58:35.800Z,34.30
2019-04-23T10:01:23.664Z,33.90
2019-04-23T10:03:38.745Z,35.30
2019-04-23T10:06:02.992Z,34.40
2019-04-23T10:08:30.835Z,33.80
2019-04-23T10:10:53.364Z,32.40
2019-04-23T10:13:22.260Z,33.30
2019-04-23T10:15:52.081Z,31.90
2019-04-23T10:18:22.430Z,31.80
2019-04-23T10:20:52.384Z,32.80
2019-04-23T10:23:21.336Z,32.70
2019-04-23T10:25:50.025Z,32.20
2019-04-23T10:28:29.648Z,31.60
2019-04-23T10:30:58.706Z,32.70
2019-04-23T10:33:27.659Z,30.90
2019-04-23T10:36:04.379Z,31.40
2019-04-23T10:38:28.650Z,30.70
2019-04-23T10:40:58.326Z,30.70
2019-04-23T10:43:28.805Z,30.20
2019-04-23T10:46:20.391Z,30.00
2019-04-23T10:49:11.293Z,30.30
2019-04-23T10:51:37.041Z,30.10
2019-04-23T10:54:17.829Z,30.30
2019-04-23T10:56:42.520Z,30.00
2019-04-23T10:59:12.220Z,30.40
2019-04-23T11:04:33.741Z,29.20
2019-04-23T11:06:47.232Z,30.00
2019-04-23T11:09:34.800Z,30.40
2019-04-23T11:11:52.616Z,29.80
2019-04-23T11:14:25.351Z,30.10
2019-04-23T11:16:58.148Z,29.80
2019-04-23T11:19:34.642Z,30.00
2019-04-23T11:22:05.508Z,30.90
2019-04-23T11:24:36.255Z,30.40
2019-04-23T11:26:57.946Z,31.40
2019-04-23T11:29:34.037Z,29.80
2019-04-23T11:32:06.785Z,30.00
2019-04-23T11:34:51.630Z,29.20
2019-04-23T11:37:07.872Z,29.50
2019-04-23T11:39:39.637Z,30.00
2019-04-23T11:42:07.646Z,30.50
2019-04-23T11:44:37.047Z,30.00
2019-04-23T11:47:07.762Z,30.00
2019-04-23T11:54:30.643Z,29.60
2019-04-23T11:57:21.908Z,29.70
2019-04-23T11:59:36.181Z,28.70
2019-04-23T12:02:22.065Z,29.80
2019-04-23T12:05:01.038Z,29.20
2019-04-23T12:12:33.377Z,29.00
2019-04-23T12:15:12.582Z,29.00
2019-04-23T12:20:12.018Z,28.60
2019-04-23T12:22:58.817Z,28.70
2019-04-23T12:28:01.431Z,29.40
2019-04-23T12:30:24.899Z,29.90
2019-04-23T12:32:59.348Z,29.20
2019-04-23T12:35:21.511Z,28.60
2019-04-23T12:38:04.170Z,29.20
2019-04-23T12:40:34.794Z,28.90
2019-04-23T12:45:35.574Z,28.50
2019-04-23T12:53:10.636Z,28.90
2019-04-23T13:18:09.389Z,28.30
2019-04-23T13:20:36.789Z,29.70
2019-04-23T13:23:16.485Z,29.90
2019-04-23T13:28:27.440Z,29.40
2019-04-23T13:30:59.327Z,29.00
2019-04-23T13:33:40.648Z,29.10
2019-04-23T13:36:11.278Z,29.20
2019-04-23T13:43:36.392Z,29.00
2019-04-23T13:46:09.946Z,29.30
2019-04-23T13:48:24.638Z,28.50
2019-04-23T13:56:01.930Z,28.20
2019-04-23T13:58:34.457Z,28.30
2019-04-23T14:01:25.374Z,28.80
2019-04-23T14:03:40.574Z,28.40
2019-04-23T14:11:14.017Z,28.80
2019-04-23T14:13:47.975Z,28.20
2019-04-23T14:16:15.317Z,28.30
2019-04-23T14:18:53.883Z,28.30
2019-04-23T14:21:17.251Z,28.40
2019-04-23T14:23:59.157Z,28.90
2019-04-23T14:31:10.991Z,29.00
2019-04-23T14:36:17.345Z,29.00
2019-04-23T14:38:43.776Z,28.60
2019-04-23T14:41:21.791Z,29.10
2019-04-23T14:43:48.727Z,28.30
2019-04-23T14:46:45.568Z,29.40
2019-04-23T14:48:53.941Z,29.40
2019-04-23T14:51:38.717Z,29.40
2019-04-23T14:53:47.896Z,29.10
2019-04-23T14:56:23.920Z,29.60
2019-04-23T15:03:52.084Z,29.50
2019-04-23T15:09:00.373Z,29.80
2019-04-23T15:11:26.489Z,29.30
2019-04-23T15:13:53.903Z,29.60
2019-04-23T15:16:33.444Z,29.90
2019-04-23T15:19:22.228Z,29.70
2019-04-23T15:24:25.206Z,30.00
2019-04-23T15:28:57.111Z,29.70
2019-04-23T15:34:27.144Z,30.30
2019-04-23T15:39:31.477Z,31.00
2019-04-23T15:42:09.382Z,30.50
2019-04-23T15:46:57.110Z,29.80
2019-04-23T15:52:06.988Z,30.50
2019-04-23T15:57:13.254Z,31.30
2019-04-23T16:01:57.920Z,31.20
2019-04-23T16:04:27.606Z,31.50
2019-04-23T16:06:56.520Z,31.90
2019-04-23T16:10:04.263Z,31.10
2019-04-23T16:12:28.103Z,32.30
2019-04-23T16:17:27.689Z,32.60
2019-04-23T16:22:38.277Z,33.10
2019-04-23T16:25:17.419Z,34.40
2019-04-23T16:27:40.215Z,34.20
2019-04-23T16:30:15.937Z,34.20
2019-04-23T16:32:52.392Z,35.10
2019-04-23T16:35:31.045Z,35.20
2019-04-23T16:37:52.904Z,35.50
2019-04-23T16:40:19.654Z,35.00
2019-04-23T16:42:48.266Z,36.30
2019-04-23T16:45:23.949Z,35.80
2019-04-23T16:47:48.984Z,36.80
2019-04-23T16:50:18.320Z,36.50
2019-04-23T16:52:57.736Z,36.60
2019-04-23T16:55:17.764Z,37.10
2019-04-23T16:57:57.915Z,37.60
2019-04-23T17:00:44.539Z,37.30
2019-04-23T17:02:59.828Z,38.00
2019-04-23T17:05:23.718Z,38.20
2019-04-23T17:08:25.221Z,38.20
2019-04-23T17:13:06.605Z,38.80
2019-04-23T17:15:48.417Z,39.10
2019-04-23T17:18:11.676Z,39.00
2019-04-23T17:23:22.226Z,39.40
2019-04-23T17:25:41.693Z,39.60
2019-04-23T17:33:27.575Z,39.90
2019-04-23T17:41:05.781Z,40.70
2019-04-23T17:43:50.656Z,41.10
2019-04-23T17:46:20.074Z,41.60
2019-04-23T17:48:51.990Z,42.20
2019-04-23T17:51:14.490Z,42.10
2019-04-23T17:56:35.866Z,43.50
2019-04-23T17:58:55.020Z,43.70
2019-04-23T18:04:14.022Z,45.60
2019-04-23T18:09:03.778Z,46.50
2019-04-23T18:11:25.249Z,46.10
2019-04-23T18:13:57.167Z,46.60
2019-04-23T18:16:35.530Z,47.30
2019-04-23T18:21:37.726Z,47.10
2019-04-23T18:27:01.293Z,48.30
2019-04-23T18:29:54.824Z,49.00
2019-04-23T18:32:16.675Z,48.00
2019-04-23T18:34:59.698Z,48.60
2019-04-23T18:37:19.394Z,48.50
2019-04-23T18:47:29.436Z,49.50
2019-04-23T18:49:55.870Z,49.50
2019-04-23T18:52:30.609Z,49.20
2019-04-23T18:54:48.341Z,49.60
2019-04-23T18:57:12.820Z,49.50
2019-04-23T19:02:37.272Z,50.10
2019-04-23T19:07:43.008Z,50.00
2019-04-23T19:12:56.991Z,50.20
2019-04-23T19:15:30.062Z,50.00
2019-04-23T19:18:06.013Z,50.40
2019-04-23T19:20:45.287Z,50.30
2019-04-23T19:23:03.157Z,50.20
2019-04-23T19:25:27.862Z,50.90
2019-04-23T19:30:43.046Z,51.20
2019-04-23T19:36:03.637Z,51.40
2019-04-23T19:38:17.854Z,51.70
2019-04-23T19:40:51.757Z,51.60
2019-04-23T19:43:19.442Z,52.00
2019-04-23T19:45:58.068Z,51.90
2019-04-23T19:53:25.307Z,52.30
2019-04-23T19:56:04.443Z,52.80
2019-04-23T19:58:29.993Z,52.90
2019-04-23T20:03:37.791Z,52.30
2019-04-23T20:06:00.512Z,52.80
2019-04-23T20:08:46.290Z,52.60
2019-04-23T20:11:01.550Z,53.20
2019-04-23T20:13:47.174Z,53.20
2019-04-23T20:18:46.253Z,52.80
2019-04-23T20:23:58.666Z,53.40
2019-04-23T20:26:13.714Z,53.60
2019-04-23T20:29:14.951Z,54.00
2019-04-23T20:32:28.933Z,54.10
2019-04-23T20:34:19.565Z,54.50
2019-04-23T20:39:06.158Z,54.60
2019-04-23T20:42:02.443Z,54.70
2019-04-23T20:44:33.234Z,54.40
2019-04-23T20:47:00.245Z,54.70
2019-04-23T20:49:31.352Z,54.90
2019-04-23T20:52:00.223Z,54.80
2019-04-23T20:54:35.973Z,55.10
2019-04-23T20:57:02.107Z,55.60
2019-04-23T20:59:33.761Z,55.40
2019-04-23T21:02:07.654Z,55.50
2019-04-23T21:04:39.655Z,55.70
2019-04-23T21:07:13.329Z,56.00
2019-04-23T21:12:15.534Z,56.20
2019-04-23T21:17:07.410Z,57.50
2019-04-23T21:19:50.545Z,56.80
2019-04-23T21:22:24.589Z,56.50
2019-04-23T21:24:46.179Z,56.60
2019-04-23T21:27:27.813Z,56.50
2019-04-23T21:32:24.719Z,57.10
2019-04-23T21:37:23.367Z,57.20
2019-04-23T21:43:00.957Z,57.20
2019-04-23T21:45:13.641Z,57.40
2019-04-23T21:47:54.871Z,57.40
2019-04-23T21:52:51.028Z,58.10
2019-04-23T21:55:26.530Z,58.10
2019-04-23T22:00:14.168Z,58.50
2019-04-23T22:02:54.779Z,58.50
2019-04-23T22:05:27.210Z,58.20
2019-04-23T22:07:56.723Z,58.60
2019-04-23T22:10:19.578Z,58.90
2019-04-23T22:13:02.207Z,59.20
2019-04-23T22:15:32.915Z,59.50
2019-04-23T22:17:49.660Z,59.60
2019-04-23T22:20:25.811Z,59.70
2019-04-23T22:23:03.533Z,59.30
2019-04-23T22:25:31.928Z,59.10
2019-04-23T22:27:54.992Z,59.60
2019-04-23T22:30:30.413Z,59.80
2019-04-23T22:33:07.165Z,59.90
2019-04-23T22:35:22.036Z,60.30
2019-04-23T22:38:09.078Z,60.10
2019-04-23T22:40:28.787Z,60.50
2019-04-23T22:45:26.234Z,60.60
2019-04-23T22:50:27.909Z,60.50
2019-04-23T22:53:05.473Z,60.30
2019-04-23T22:55:32.908Z,60.90
2019-04-23T22:58:08.202Z,60.90
2019-04-23T23:00:30.045Z,61.30
2019-04-23T23:03:09.226Z,61.40
2019-04-23T23:05:55.931Z,61.40
2019-04-23T23:10:46.190Z,62.50
2019-04-23T23:13:18.661Z,62.20
2019-04-23T23:15:49.293Z,62.70
2019-04-23T23:25:52.009Z,63.40
2019-04-23T23:28:24.641Z,63.30
2019-04-23T23:30:55.309Z,63.60
2019-04-23T23:33:17.261Z,63.90
2019-04-23T23:38:31.408Z,64.30
2019-04-23T23:41:02.039Z,64.50
2019-04-23T23:43:29.992Z,64.50
2019-04-23T23:45:55.402Z,64.40
2019-04-23T23:48:20.128Z,64.60
2019-04-23T23:53:29.772Z,65.00
2019-04-23T23:56:05.463Z,65.10
2019-04-23T23:58:35.583Z,65.40
